sensor_id;sensor_type;location;lat;lon;timestamp;temperature;humidity
43999;DHT22;51319;52.162;5.302;2023-03-01T00:01:21;-2.00;87.90
43999;DHT22;51319;52.162;5.302;2023-03-01T00:03:49;-2.00;88.10
43999;DHT22;51319;52.162;5.302;2023-03-01T00:06:17;-2.00;88.30
43999;DHT22;51319;52.162;5.302;2023-03-01T00:08:44;-2.10;88.40
43999;DHT22;51319;52.162;5.302;2023-03-01T00:11:12;-2.10;88.60
43999;DHT22;51319;52.162;5.302;2023-03-01T00:13:40;-2.10;88.70
43999;DHT22;51319;52.162;5.302;2023-03-01T00:16:14;-2.10;88.80
43999;DHT22;51319;52.162;5.302;2023-03-01T00:18:41;-2.20;89.00
43999;DHT22;51319;52.162;5.302;2023-03-01T00:21:08;-2.20;89.20
43999;DHT22;51319;52.162;5.302;2023-03-01T00:23:35;-2.20;89.40
43999;DHT22;51319;52.162;5.302;2023-03-01T00:26:06;-2.20;89.60
43999;DHT22;51319;52.162;5.302;2023-03-01T00:28:34;-2.20;89.90
43999;DHT22;51319;52.162;5.302;2023-03-01T00:31:09;-2.20;90.00
43999;DHT22;51319;52.162;5.302;2023-03-01T00:33:37;-2.20;90.10
43999;DHT22;51319;52.162;5.302;2023-03-01T00:36:04;-2.20;90.20
43999;DHT22;51319;52.162;5.302;2023-03-01T00:38:44;-2.20;90.20
43999;DHT22;51319;52.162;5.302;2023-03-01T00:41:14;-2.30;90.20
43999;DHT22;51319;52.162;5.302;2023-03-01T00:43:41;-2.30;90.30
43999;DHT22;51319;52.162;5.302;2023-03-01T00:46:14;-2.30;90.40
43999;DHT22;51319;52.162;5.302;2023-03-01T00:48:41;-2.30;90.50
43999;DHT22;51319;52.162;5.302;2023-03-01T00:51:15;-2.40;90.60
43999;DHT22;51319;52.162;5.302;2023-03-01T00:53:43;-2.40;90.70
43999;DHT22;51319;52.162;5.302;2023-03-01T00:56:11;-2.40;90.80
43999;DHT22;51319;52.162;5.302;2023-03-01T00:58:38;-2.40;90.80
43999;DHT22;51319;52.162;5.302;2023-03-01T01:01:17;-2.40;90.90
43999;DHT22;51319;52.162;5.302;2023-03-01T01:03:49;-2.40;91.00
43999;DHT22;51319;52.162;5.302;2023-03-01T01:06:28;-2.50;91.10
43999;DHT22;51319;52.162;5.302;2023-03-01T01:08:57;-2.50;91.20
43999;DHT22;51319;52.162;5.302;2023-03-01T01:11:26;-2.50;91.30
43999;DHT22;51319;52.162;5.302;2023-03-01T01:13:54;-2.50;91.40
43999;DHT22;51319;52.162;5.302;2023-03-01T01:16:23;-2.50;91.50
43999;DHT22;51319;52.162;5.302;2023-03-01T01:18:50;-2.50;91.60
43999;DHT22;51319;52.162;5.302;2023-03-01T01:21:20;-2.50;91.70
43999;DHT22;51319;52.162;5.302;2023-03-01T01:23:47;-2.50;91.70
43999;DHT22;51319;52.162;5.302;2023-03-01T01:26:20;-2.60;91.80
43999;DHT22;51319;52.162;5.302;2023-03-01T01:28:48;-2.60;91.90
43999;DHT22;51319;52.162;5.302;2023-03-01T01:31:15;-2.60;92.00
43999;DHT22;51319;52.162;5.302;2023-03-01T01:33:42;-2.60;92.00
43999;DHT22;51319;52.162;5.302;2023-03-01T01:36:09;-2.70;92.20
43999;DHT22;51319;52.162;5.302;2023-03-01T01:38:37;-2.70;92.30
43999;DHT22;51319;52.162;5.302;2023-03-01T01:41:05;-2.80;92.70
43999;DHT22;51319;52.162;5.302;2023-03-01T01:43:47;-2.80;92.50
43999;DHT22;51319;52.162;5.302;2023-03-01T01:46:31;-2.80;92.60
43999;DHT22;51319;52.162;5.302;2023-03-01T01:49:35;-2.80;92.70
43999;DHT22;51319;52.162;5.302;2023-03-01T01:54:55;-2.90;92.80
43999;DHT22;51319;52.162;5.302;2023-03-01T01:57:29;-2.90;92.90
43999;DHT22;51319;52.162;5.302;2023-03-01T02:00:04;-2.90;93.00
43999;DHT22;51319;52.162;5.302;2023-03-01T02:02:31;-3.00;93.10
43999;DHT22;51319;52.162;5.302;2023-03-01T02:05:06;-3.00;93.10
43999;DHT22;51319;52.162;5.302;2023-03-01T02:07:38;-3.00;93.30
43999;DHT22;51319;52.162;5.302;2023-03-01T02:10:06;-3.00;93.70
43999;DHT22;51319;52.162;5.302;2023-03-01T02:12:34;-3.10;93.50
43999;DHT22;51319;52.162;5.302;2023-03-01T02:15:02;-3.10;93.60
43999;DHT22;51319;52.162;5.302;2023-03-01T02:17:29;-3.10;93.70
43999;DHT22;51319;52.162;5.302;2023-03-01T02:22:48;-3.10;93.90
43999;DHT22;51319;52.162;5.302;2023-03-01T02:30:22;-3.20;94.10
43999;DHT22;51319;52.162;5.302;2023-03-01T02:32:53;-3.20;94.20
43999;DHT22;51319;52.162;5.302;2023-03-01T02:35:21;-3.20;94.30
43999;DHT22;51319;52.162;5.302;2023-03-01T02:37:48;-3.30;94.60
43999;DHT22;51319;52.162;5.302;2023-03-01T02:40:17;-3.30;94.40
43999;DHT22;51319;52.162;5.302;2023-03-01T02:42:54;-3.30;94.50
43999;DHT22;51319;52.162;5.302;2023-03-01T02:45:22;-3.30;94.60
43999;DHT22;51319;52.162;5.302;2023-03-01T02:47:49;-3.30;94.60
43999;DHT22;51319;52.162;5.302;2023-03-01T02:55:51;-3.40;94.80
43999;DHT22;51319;52.162;5.302;2023-03-01T02:58:19;-3.40;94.90
43999;DHT22;51319;52.162;5.302;2023-03-01T03:00:46;-3.40;94.90
43999;DHT22;51319;52.162;5.302;2023-03-01T03:03:17;-3.50;94.90
43999;DHT22;51319;52.162;5.302;2023-03-01T03:05:46;-3.50;95.00
43999;DHT22;51319;52.162;5.302;2023-03-01T03:08:14;-3.50;95.10
43999;DHT22;51319;52.162;5.302;2023-03-01T03:10:50;-3.50;95.20
43999;DHT22;51319;52.162;5.302;2023-03-01T03:13:17;-3.60;95.30
43999;DHT22;51319;52.162;5.302;2023-03-01T03:15:45;-3.60;95.40
43999;DHT22;51319;52.162;5.302;2023-03-01T03:18:15;-3.60;95.40
43999;DHT22;51319;52.162;5.302;2023-03-01T03:20:43;-3.60;95.50
43999;DHT22;51319;52.162;5.302;2023-03-01T03:23:10;-3.60;95.50
43999;DHT22;51319;52.162;5.302;2023-03-01T03:25:37;-3.60;95.50
43999;DHT22;51319;52.162;5.302;2023-03-01T03:28:06;-3.60;95.60
43999;DHT22;51319;52.162;5.302;2023-03-01T03:30:39;-3.60;95.70
43999;DHT22;51319;52.162;5.302;2023-03-01T03:33:06;-3.70;95.60
43999;DHT22;51319;52.162;5.302;2023-03-01T03:35:39;-3.70;95.70
43999;DHT22;51319;52.162;5.302;2023-03-01T03:38:09;-3.70;95.70
43999;DHT22;51319;52.162;5.302;2023-03-01T03:40:47;-3.70;95.80
43999;DHT22;51319;52.162;5.302;2023-03-01T03:43:16;-3.80;95.80
43999;DHT22;51319;52.162;5.302;2023-03-01T03:45:45;-3.80;95.80
43999;DHT22;51319;52.162;5.302;2023-03-01T03:48:12;-3.80;95.90
43999;DHT22;51319;52.162;5.302;2023-03-01T03:50:40;-3.90;96.00
43999;DHT22;51319;52.162;5.302;2023-03-01T03:53:11;-3.90;96.00
43999;DHT22;51319;52.162;5.302;2023-03-01T03:55:38;-3.90;96.10
43999;DHT22;51319;52.162;5.302;2023-03-01T03:58:09;-3.90;96.10
43999;DHT22;51319;52.162;5.302;2023-03-01T04:00:44;-3.90;96.20
43999;DHT22;51319;52.162;5.302;2023-03-01T04:03:12;-4.00;96.20
43999;DHT22;51319;52.162;5.302;2023-03-01T04:05:40;-4.00;96.20
43999;DHT22;51319;52.162;5.302;2023-03-01T04:08:08;-4.00;96.30
43999;DHT22;51319;52.162;5.302;2023-03-01T04:10:38;-4.00;96.30
43999;DHT22;51319;52.162;5.302;2023-03-01T04:13:06;-4.00;96.50
43999;DHT22;51319;52.162;5.302;2023-03-01T04:15:34;-4.00;96.60
43999;DHT22;51319;52.162;5.302;2023-03-01T04:18:02;-4.00;96.60
43999;DHT22;51319;52.162;5.302;2023-03-01T04:20:31;-4.00;96.70
43999;DHT22;51319;52.162;5.302;2023-03-01T04:23:04;-4.00;96.70
43999;DHT22;51319;52.162;5.302;2023-03-01T04:25:47;-4.00;96.70
43999;DHT22;51319;52.162;5.302;2023-03-01T04:28:26;-4.00;96.70
43999;DHT22;51319;52.162;5.302;2023-03-01T04:30:55;-4.00;96.70
43999;DHT22;51319;52.162;5.302;2023-03-01T04:33:23;-4.10;96.80
43999;DHT22;51319;52.162;5.302;2023-03-01T04:35:50;-4.10;96.80
43999;DHT22;51319;52.162;5.302;2023-03-01T04:38:18;-4.10;96.90
43999;DHT22;51319;52.162;5.302;2023-03-01T04:40:45;-4.10;96.90
43999;DHT22;51319;52.162;5.302;2023-03-01T04:43:12;-4.10;96.90
43999;DHT22;51319;52.162;5.302;2023-03-01T04:45:43;-4.10;97.00
43999;DHT22;51319;52.162;5.302;2023-03-01T04:48:10;-4.10;97.00
43999;DHT22;51319;52.162;5.302;2023-03-01T04:50:37;-4.10;97.00
43999;DHT22;51319;52.162;5.302;2023-03-01T04:53:03;-4.10;97.10
43999;DHT22;51319;52.162;5.302;2023-03-01T04:55:30;-4.10;97.10
43999;DHT22;51319;52.162;5.302;2023-03-01T04:57:58;-4.10;97.10
43999;DHT22;51319;52.162;5.302;2023-03-01T05:00:25;-4.10;97.20
43999;DHT22;51319;52.162;5.302;2023-03-01T05:02:57;-4.10;97.20
43999;DHT22;51319;52.162;5.302;2023-03-01T05:05:30;-4.10;97.30
43999;DHT22;51319;52.162;5.302;2023-03-01T05:08:00;-4.10;97.30
43999;DHT22;51319;52.162;5.302;2023-03-01T05:10:28;-4.10;97.20
43999;DHT22;51319;52.162;5.302;2023-03-01T05:12:56;-4.20;97.20
43999;DHT22;51319;52.162;5.302;2023-03-01T05:15:25;-4.20;97.20
43999;DHT22;51319;52.162;5.302;2023-03-01T05:17:54;-4.20;97.30
43999;DHT22;51319;52.162;5.302;2023-03-01T05:20:22;-4.20;97.30
43999;DHT22;51319;52.162;5.302;2023-03-01T05:22:53;-4.30;97.30
43999;DHT22;51319;52.162;5.302;2023-03-01T05:25:21;-4.30;97.30
43999;DHT22;51319;52.162;5.302;2023-03-01T05:27:48;-4.30;97.30
43999;DHT22;51319;52.162;5.302;2023-03-01T05:30:15;-4.30;97.30
43999;DHT22;51319;52.162;5.302;2023-03-01T05:32:47;-4.30;97.30
43999;DHT22;51319;52.162;5.302;2023-03-01T05:35:16;-4.30;97.40
43999;DHT22;51319;52.162;5.302;2023-03-01T05:37:46;-4.40;97.40
43999;DHT22;51319;52.162;5.302;2023-03-01T05:40:15;-4.40;97.40
43999;DHT22;51319;52.162;5.302;2023-03-01T05:42:52;-4.40;97.40
43999;DHT22;51319;52.162;5.302;2023-03-01T05:45:19;-4.40;97.50
43999;DHT22;51319;52.162;5.302;2023-03-01T05:47:47;-4.40;97.50
43999;DHT22;51319;52.162;5.302;2023-03-01T05:50:20;-4.40;97.50
43999;DHT22;51319;52.162;5.302;2023-03-01T05:52:49;-4.40;97.50
43999;DHT22;51319;52.162;5.302;2023-03-01T05:55:18;-4.40;97.60
43999;DHT22;51319;52.162;5.302;2023-03-01T05:57:45;-4.50;97.60
43999;DHT22;51319;52.162;5.302;2023-03-01T06:00:15;-4.50;97.60
43999;DHT22;51319;52.162;5.302;2023-03-01T06:02:42;-4.50;97.60
43999;DHT22;51319;52.162;5.302;2023-03-01T06:05:11;-4.50;97.70
43999;DHT22;51319;52.162;5.302;2023-03-01T06:07:39;-4.50;97.70
43999;DHT22;51319;52.162;5.302;2023-03-01T06:10:07;-4.50;97.70
43999;DHT22;51319;52.162;5.302;2023-03-01T06:12:35;-4.50;97.70
43999;DHT22;51319;52.162;5.302;2023-03-01T06:15:04;-4.50;97.70
43999;DHT22;51319;52.162;5.302;2023-03-01T06:17:35;-4.60;97.70
43999;DHT22;51319;52.162;5.302;2023-03-01T06:20:06;-4.50;97.80
43999;DHT22;51319;52.162;5.302;2023-03-01T06:22:33;-4.40;97.90
43999;DHT22;51319;52.162;5.302;2023-03-01T06:25:00;-4.50;97.80
43999;DHT22;51319;52.162;5.302;2023-03-01T06:27:27;-4.50;97.70
43999;DHT22;51319;52.162;5.302;2023-03-01T06:30:01;-4.50;97.90
43999;DHT22;51319;52.162;5.302;2023-03-01T06:32:28;-4.40;97.80
43999;DHT22;51319;52.162;5.302;2023-03-01T06:34:55;-4.50;97.80
43999;DHT22;51319;52.162;5.302;2023-03-01T06:37:21;-4.50;97.80
43999;DHT22;51319;52.162;5.302;2023-03-01T06:39:48;-4.50;97.80
43999;DHT22;51319;52.162;5.302;2023-03-01T06:42:15;-4.50;97.80
43999;DHT22;51319;52.162;5.302;2023-03-01T06:44:44;-4.40;97.90
43999;DHT22;51319;52.162;5.302;2023-03-01T06:47:11;-4.40;97.90
43999;DHT22;51319;52.162;5.302;2023-03-01T06:49:38;-4.40;97.90
43999;DHT22;51319;52.162;5.302;2023-03-01T06:52:06;-4.30;97.90
43999;DHT22;51319;52.162;5.302;2023-03-01T06:54:32;-4.30;98.00
43999;DHT22;51319;52.162;5.302;2023-03-01T06:56:59;-4.00;98.20
43999;DHT22;51319;52.162;5.302;2023-03-01T06:59:26;-3.90;98.10
43999;DHT22;51319;52.162;5.302;2023-03-01T07:01:53;-3.80;97.90
43999;DHT22;51319;52.162;5.302;2023-03-01T07:04:20;-3.80;97.70
43999;DHT22;51319;52.162;5.302;2023-03-01T07:06:46;-3.70;97.70
43999;DHT22;51319;52.162;5.302;2023-03-01T07:09:23;-3.70;97.50
43999;DHT22;51319;52.162;5.302;2023-03-01T07:11:50;-3.70;97.70
43999;DHT22;51319;52.162;5.302;2023-03-01T07:14:17;-3.50;98.00
43999;DHT22;51319;52.162;5.302;2023-03-01T07:16:44;-3.40;97.80
43999;DHT22;51319;52.162;5.302;2023-03-01T07:19:11;-3.30;97.60
43999;DHT22;51319;52.162;5.302;2023-03-01T07:21:37;-3.10;97.70
43999;DHT22;51319;52.162;5.302;2023-03-01T07:24:08;-3.10;97.30
43999;DHT22;51319;52.162;5.302;2023-03-01T07:26:35;-3.10;97.30
43999;DHT22;51319;52.162;5.302;2023-03-01T07:29:04;-3.10;97.30
43999;DHT22;51319;52.162;5.302;2023-03-01T07:31:31;-3.10;97.30
43999;DHT22;51319;52.162;5.302;2023-03-01T07:33:58;-3.00;97.40
43999;DHT22;51319;52.162;5.302;2023-03-01T07:36:25;-2.80;97.50
43999;DHT22;51319;52.162;5.302;2023-03-01T07:38:52;-2.70;97.50
43999;DHT22;51319;52.162;5.302;2023-03-01T07:41:19;-2.60;97.10
43999;DHT22;51319;52.162;5.302;2023-03-01T07:43:46;-2.60;97.00
43999;DHT22;51319;52.162;5.302;2023-03-01T07:46:13;-2.50;97.10
43999;DHT22;51319;52.162;5.302;2023-03-01T07:48:40;-2.20;97.30
43999;DHT22;51319;52.162;5.302;2023-03-01T07:51:07;-2.00;97.40
43999;DHT22;51319;52.162;5.302;2023-03-01T07:53:35;-1.70;97.60
43999;DHT22;51319;52.162;5.302;2023-03-01T07:58:37;-0.90;97.10
43999;DHT22;51319;52.162;5.302;2023-03-01T08:01:06;-0.70;96.30
43999;DHT22;51319;52.162;5.302;2023-03-01T08:03:34;-0.50;95.90
43999;DHT22;51319;52.162;5.302;2023-03-01T08:06:03;-0.40;95.30
43999;DHT22;51319;52.162;5.302;2023-03-01T08:08:31;-0.40;95.20
43999;DHT22;51319;52.162;5.302;2023-03-01T08:11:03;0.40;96.10
43999;DHT22;51319;52.162;5.302;2023-03-01T08:13:31;1.80;95.30
43999;DHT22;51319;52.162;5.302;2023-03-01T08:16:10;3.00;93.20
43999;DHT22;51319;52.162;5.302;2023-03-01T08:18:38;3.70;90.60
43999;DHT22;51319;52.162;5.302;2023-03-01T08:21:07;3.90;88.80
43999;DHT22;51319;52.162;5.302;2023-03-01T08:23:34;3.90;86.80
43999;DHT22;51319;52.162;5.302;2023-03-01T08:28:33;4.00;86.40
43999;DHT22;51319;52.162;5.302;2023-03-01T08:31:00;5.30;85.70
43999;DHT22;51319;52.162;5.302;2023-03-01T08:33:27;6.30;81.50
43999;DHT22;51319;52.162;5.302;2023-03-01T08:36:03;7.00;77.80
43999;DHT22;51319;52.162;5.302;2023-03-01T08:38:30;7.40;74.60
43999;DHT22;51319;52.162;5.302;2023-03-01T08:41:00;8.80;72.20
43999;DHT22;51319;52.162;5.302;2023-03-01T08:43:27;10.00;67.60
43999;DHT22;51319;52.162;5.302;2023-03-01T08:45:54;11.30;63.60
43999;DHT22;51319;52.162;5.302;2023-03-01T08:48:21;12.50;59.40
43999;DHT22;51319;52.162;5.302;2023-03-01T08:50:48;13.30;55.80
43999;DHT22;51319;52.162;5.302;2023-03-01T08:53:15;14.00;53.20
43999;DHT22;51319;52.162;5.302;2023-03-01T08:55:42;14.80;50.90
43999;DHT22;51319;52.162;5.302;2023-03-01T08:58:08;15.50;48.70
43999;DHT22;51319;52.162;5.302;2023-03-01T09:00:35;16.00;46.70
43999;DHT22;51319;52.162;5.302;2023-03-01T09:03:02;16.40;45.50
43999;DHT22;51319;52.162;5.302;2023-03-01T09:05:32;17.10;44.30
43999;DHT22;51319;52.162;5.302;2023-03-01T09:07:59;17.60;42.90
43999;DHT22;51319;52.162;5.302;2023-03-01T09:10:26;18.10;41.80
43999;DHT22;51319;52.162;5.302;2023-03-01T09:12:53;18.60;40.80
43999;DHT22;51319;52.162;5.302;2023-03-01T09:15:20;19.20;39.30
43999;DHT22;51319;52.162;5.302;2023-03-01T09:17:47;19.70;38.70
43999;DHT22;51319;52.162;5.302;2023-03-01T09:20:13;20.00;38.20
43999;DHT22;51319;52.162;5.302;2023-03-01T09:22:40;20.30;37.30
43999;DHT22;51319;52.162;5.302;2023-03-01T09:25:07;20.60;36.90
43999;DHT22;51319;52.162;5.302;2023-03-01T09:27:34;21.20;36.10
43999;DHT22;51319;52.162;5.302;2023-03-01T09:30:02;21.50;35.20
43999;DHT22;51319;52.162;5.302;2023-03-01T09:32:30;21.80;34.00
43999;DHT22;51319;52.162;5.302;2023-03-01T09:34:57;22.00;33.70
43999;DHT22;51319;52.162;5.302;2023-03-01T09:37:27;22.40;33.40
43999;DHT22;51319;52.162;5.302;2023-03-01T09:39:54;22.60;33.10
43999;DHT22;51319;52.162;5.302;2023-03-01T09:42:21;21.40;33.20
43999;DHT22;51319;52.162;5.302;2023-03-01T09:44:52;18.70;35.70
43999;DHT22;51319;52.162;5.302;2023-03-01T09:47:27;16.40;38.30
43999;DHT22;51319;52.162;5.302;2023-03-01T09:50:39;14.40;41.50
43999;DHT22;51319;52.162;5.302;2023-03-01T09:53:53;12.80;43.90
43999;DHT22;51319;52.162;5.302;2023-03-01T09:56:45;11.50;46.80
43999;DHT22;51319;52.162;5.302;2023-03-01T10:01:48;15.40;44.30
43999;DHT22;51319;52.162;5.302;2023-03-01T10:09:32;20.50;35.70
43999;DHT22;51319;52.162;5.302;2023-03-01T10:12:02;21.40;33.10
43999;DHT22;51319;52.162;5.302;2023-03-01T10:14:36;22.30;32.60
43999;DHT22;51319;52.162;5.302;2023-03-01T10:17:48;23.00;31.30
43999;DHT22;51319;52.162;5.302;2023-03-01T10:20:19;23.90;31.20
43999;DHT22;51319;52.162;5.302;2023-03-01T10:22:47;24.40;31.10
43999;DHT22;51319;52.162;5.302;2023-03-01T10:28:03;25.30;29.70
43999;DHT22;51319;52.162;5.302;2023-03-01T10:30:36;25.60;28.00
43999;DHT22;51319;52.162;5.302;2023-03-01T10:33:21;25.80;27.80
43999;DHT22;51319;52.162;5.302;2023-03-01T10:35:50;26.20;27.50
43999;DHT22;51319;52.162;5.302;2023-03-01T10:38:18;26.10;27.00
43999;DHT22;51319;52.162;5.302;2023-03-01T10:41:06;26.30;27.50
43999;DHT22;51319;52.162;5.302;2023-03-01T10:43:57;26.50;27.30
43999;DHT22;51319;52.162;5.302;2023-03-01T10:46:33;26.90;26.80
43999;DHT22;51319;52.162;5.302;2023-03-01T10:51:44;27.30;26.60
43999;DHT22;51319;52.162;5.302;2023-03-01T10:54:19;27.30;26.50
43999;DHT22;51319;52.162;5.302;2023-03-01T10:56:51;27.40;26.30
43999;DHT22;51319;52.162;5.302;2023-03-01T10:59:35;27.50;26.10
43999;DHT22;51319;52.162;5.302;2023-03-01T11:02:16;27.60;25.70
43999;DHT22;51319;52.162;5.302;2023-03-01T11:05:03;27.70;25.10
43999;DHT22;51319;52.162;5.302;2023-03-01T11:07:47;27.80;25.10
43999;DHT22;51319;52.162;5.302;2023-03-01T11:10:26;28.00;25.20
43999;DHT22;51319;52.162;5.302;2023-03-01T11:12:53;28.20;24.60
43999;DHT22;51319;52.162;5.302;2023-03-01T11:15:31;28.00;24.20
43999;DHT22;51319;52.162;5.302;2023-03-01T11:17:58;28.10;24.30
43999;DHT22;51319;52.162;5.302;2023-03-01T11:20:39;28.10;24.10
43999;DHT22;51319;52.162;5.302;2023-03-01T11:23:12;28.00;24.00
43999;DHT22;51319;52.162;5.302;2023-03-01T11:25:42;28.10;23.90
43999;DHT22;51319;52.162;5.302;2023-03-01T11:28:16;28.20;24.20
43999;DHT22;51319;52.162;5.302;2023-03-01T11:36:47;28.20;23.60
43999;DHT22;51319;52.162;5.302;2023-03-01T11:39:38;28.30;23.80
43999;DHT22;51319;52.162;5.302;2023-03-01T11:42:17;28.30;23.70
43999;DHT22;51319;52.162;5.302;2023-03-01T11:44:48;28.40;23.60
43999;DHT22;51319;52.162;5.302;2023-03-01T11:50:40;28.60;23.20
43999;DHT22;51319;52.162;5.302;2023-03-01T12:04:31;29.00;23.30
43999;DHT22;51319;52.162;5.302;2023-03-01T12:26:30;29.50;23.20
43999;DHT22;51319;52.162;5.302;2023-03-01T12:34:33;28.80;23.40
43999;DHT22;51319;52.162;5.302;2023-03-01T12:51:11;25.00;23.90
43999;DHT22;51319;52.162;5.302;2023-03-01T12:53:41;24.60;24.50
43999;DHT22;51319;52.162;5.302;2023-03-01T12:56:20;24.30;24.70
43999;DHT22;51319;52.162;5.302;2023-03-01T12:58:56;23.70;24.20
43999;DHT22;51319;52.162;5.302;2023-03-01T13:04:35;21.60;25.80
43999;DHT22;51319;52.162;5.302;2023-03-01T13:07:15;20.70;26.10
43999;DHT22;51319;52.162;5.302;2023-03-01T13:18:04;18.20;28.20
43999;DHT22;51319;52.162;5.302;2023-03-01T13:20:53;18.20;28.50
43999;DHT22;51319;52.162;5.302;2023-03-01T13:31:11;17.30;28.40
43999;DHT22;51319;52.162;5.302;2023-03-01T13:34:02;17.50;28.80
43999;DHT22;51319;52.162;5.302;2023-03-01T13:39:05;17.40;29.00
43999;DHT22;51319;52.162;5.302;2023-03-01T13:41:54;17.50;29.20
43999;DHT22;51319;52.162;5.302;2023-03-01T13:44:35;18.10;29.20
43999;DHT22;51319;52.162;5.302;2023-03-01T13:49:59;18.00;28.70
43999;DHT22;51319;52.162;5.302;2023-03-01T13:52:39;17.60;28.80
43999;DHT22;51319;52.162;5.302;2023-03-01T13:55:43;17.30;28.80
43999;DHT22;51319;52.162;5.302;2023-03-01T13:58:32;16.90;29.20
43999;DHT22;51319;52.162;5.302;2023-03-01T14:01:02;16.90;29.50
43999;DHT22;51319;52.162;5.302;2023-03-01T14:03:39;16.90;29.60
43999;DHT22;51319;52.162;5.302;2023-03-01T14:08:45;17.00;29.50
43999;DHT22;51319;52.162;5.302;2023-03-01T14:19:56;16.20;29.90
43999;DHT22;51319;52.162;5.302;2023-03-01T14:22:34;16.10;29.80
43999;DHT22;51319;52.162;5.302;2023-03-01T14:25:05;16.00;30.00
43999;DHT22;51319;52.162;5.302;2023-03-01T14:27:43;15.90;29.90
43999;DHT22;51319;52.162;5.302;2023-03-01T14:30:19;15.80;30.00
43999;DHT22;51319;52.162;5.302;2023-03-01T14:32:59;15.60;30.00
43999;DHT22;51319;52.162;5.302;2023-03-01T14:35:35;15.50;30.40
43999;DHT22;51319;52.162;5.302;2023-03-01T14:38:03;15.60;30.20
43999;DHT22;51319;52.162;5.302;2023-03-01T14:40:34;15.70;30.30
43999;DHT22;51319;52.162;5.302;2023-03-01T14:43:02;15.70;30.40
43999;DHT22;51319;52.162;5.302;2023-03-01T14:45:35;15.70;30.60
43999;DHT22;51319;52.162;5.302;2023-03-01T14:48:04;15.40;30.50
43999;DHT22;51319;52.162;5.302;2023-03-01T14:50:34;15.20;31.30
43999;DHT22;51319;52.162;5.302;2023-03-01T14:53:05;15.20;31.50
43999;DHT22;51319;52.162;5.302;2023-03-01T14:55:38;15.20;31.60
43999;DHT22;51319;52.162;5.302;2023-03-01T14:58:16;15.00;30.90
43999;DHT22;51319;52.162;5.302;2023-03-01T15:00:57;15.00;31.20
43999;DHT22;51319;52.162;5.302;2023-03-01T15:03:35;15.10;31.40
43999;DHT22;51319;52.162;5.302;2023-03-01T15:06:14;15.10;31.60
43999;DHT22;51319;52.162;5.302;2023-03-01T15:08:46;15.00;31.20
43999;DHT22;51319;52.162;5.302;2023-03-01T15:11:23;14.90;32.00
43999;DHT22;51319;52.162;5.302;2023-03-01T15:13:52;14.60;31.70
43999;DHT22;51319;52.162;5.302;2023-03-01T15:16:39;14.20;31.90
43999;DHT22;51319;52.162;5.302;2023-03-01T15:19:15;13.80;32.60
43999;DHT22;51319;52.162;5.302;2023-03-01T15:21:44;13.40;32.80
43999;DHT22;51319;52.162;5.302;2023-03-01T15:27:05;12.70;33.70
43999;DHT22;51319;52.162;5.302;2023-03-01T15:29:35;12.40;34.40
43999;DHT22;51319;52.162;5.302;2023-03-01T15:34:55;11.80;35.90
43999;DHT22;51319;52.162;5.302;2023-03-01T15:40:27;11.20;36.30
43999;DHT22;51319;52.162;5.302;2023-03-01T15:43:05;11.00;36.90
43999;DHT22;51319;52.162;5.302;2023-03-01T15:45:33;10.80;37.00
43999;DHT22;51319;52.162;5.302;2023-03-01T15:48:03;10.60;37.80
43999;DHT22;51319;52.162;5.302;2023-03-01T15:50:35;10.50;37.90
43999;DHT22;51319;52.162;5.302;2023-03-01T15:53:11;10.40;38.50
43999;DHT22;51319;52.162;5.302;2023-03-01T15:55:41;10.20;38.80
43999;DHT22;51319;52.162;5.302;2023-03-01T16:01:27;10.00;39.40
43999;DHT22;51319;52.162;5.302;2023-03-01T16:03:57;9.90;39.70
43999;DHT22;51319;52.162;5.302;2023-03-01T16:06:24;9.80;40.20
43999;DHT22;51319;52.162;5.302;2023-03-01T16:08:51;9.70;40.10
43999;DHT22;51319;52.162;5.302;2023-03-01T16:11:20;9.60;40.30
43999;DHT22;51319;52.162;5.302;2023-03-01T16:13:47;9.50;40.40
43999;DHT22;51319;52.162;5.302;2023-03-01T16:16:15;9.50;40.60
43999;DHT22;51319;52.162;5.302;2023-03-01T16:18:44;9.40;40.60
43999;DHT22;51319;52.162;5.302;2023-03-01T16:21:20;9.30;41.00
43999;DHT22;51319;52.162;5.302;2023-03-01T16:23:47;9.20;41.20
43999;DHT22;51319;52.162;5.302;2023-03-01T16:26:15;9.10;41.50
43999;DHT22;51319;52.162;5.302;2023-03-01T16:28:43;9.00;41.70
43999;DHT22;51319;52.162;5.302;2023-03-01T16:31:10;9.00;41.90
43999;DHT22;51319;52.162;5.302;2023-03-01T16:33:38;8.90;42.30
43999;DHT22;51319;52.162;5.302;2023-03-01T16:36:10;8.80;42.70
43999;DHT22;51319;52.162;5.302;2023-03-01T16:38:37;8.70;43.00
43999;DHT22;51319;52.162;5.302;2023-03-01T16:41:05;8.70;43.00
43999;DHT22;51319;52.162;5.302;2023-03-01T16:43:35;8.60;43.00
43999;DHT22;51319;52.162;5.302;2023-03-01T16:46:19;8.50;43.10
43999;DHT22;51319;52.162;5.302;2023-03-01T16:48:47;8.40;43.30
43999;DHT22;51319;52.162;5.302;2023-03-01T16:51:15;8.30;43.40
43999;DHT22;51319;52.162;5.302;2023-03-01T16:53:42;8.20;43.70
43999;DHT22;51319;52.162;5.302;2023-03-01T16:56:13;8.20;44.10
43999;DHT22;51319;52.162;5.302;2023-03-01T16:58:40;8.00;44.30
43999;DHT22;51319;52.162;5.302;2023-03-01T17:01:08;8.00;44.60
43999;DHT22;51319;52.162;5.302;2023-03-01T17:03:36;7.80;44.90
43999;DHT22;51319;52.162;5.302;2023-03-01T17:06:09;7.70;45.40
43999;DHT22;51319;52.162;5.302;2023-03-01T17:08:37;7.60;45.90
43999;DHT22;51319;52.162;5.302;2023-03-01T17:11:13;7.60;46.20
43999;DHT22;51319;52.162;5.302;2023-03-01T17:13:40;7.40;46.60
43999;DHT22;51319;52.162;5.302;2023-03-01T17:16:10;7.40;46.80
43999;DHT22;51319;52.162;5.302;2023-03-01T17:18:37;7.30;46.90
43999;DHT22;51319;52.162;5.302;2023-03-01T17:21:05;7.30;47.40
43999;DHT22;51319;52.162;5.302;2023-03-01T17:23:34;7.20;47.70
43999;DHT22;51319;52.162;5.302;2023-03-01T17:26:02;7.10;47.90
43999;DHT22;51319;52.162;5.302;2023-03-01T17:28:30;7.00;48.10
43999;DHT22;51319;52.162;5.302;2023-03-01T17:30:59;6.90;48.40
43999;DHT22;51319;52.162;5.302;2023-03-01T17:33:27;6.90;48.90
43999;DHT22;51319;52.162;5.302;2023-03-01T17:35:57;6.70;49.00
43999;DHT22;51319;52.162;5.302;2023-03-01T17:38:26;6.70;49.20
43999;DHT22;51319;52.162;5.302;2023-03-01T17:40:53;6.60;49.40
43999;DHT22;51319;52.162;5.302;2023-03-01T17:43:21;6.50;49.30
43999;DHT22;51319;52.162;5.302;2023-03-01T17:45:50;6.40;49.60
43999;DHT22;51319;52.162;5.302;2023-03-01T17:48:18;6.40;49.60
43999;DHT22;51319;52.162;5.302;2023-03-01T17:50:50;6.30;49.70
43999;DHT22;51319;52.162;5.302;2023-03-01T17:53:23;6.20;50.00
43999;DHT22;51319;52.162;5.302;2023-03-01T17:55:59;6.20;50.00
43999;DHT22;51319;52.162;5.302;2023-03-01T17:58:26;6.00;50.40
43999;DHT22;51319;52.162;5.302;2023-03-01T18:00:53;6.00;50.40
43999;DHT22;51319;52.162;5.302;2023-03-01T18:03:20;5.90;50.70
43999;DHT22;51319;52.162;5.302;2023-03-01T18:05:49;5.80;51.20
43999;DHT22;51319;52.162;5.302;2023-03-01T18:08:16;5.70;51.60
43999;DHT22;51319;52.162;5.302;2023-03-01T18:10:43;5.70;51.80
43999;DHT22;51319;52.162;5.302;2023-03-01T18:13:10;5.60;52.00
43999;DHT22;51319;52.162;5.302;2023-03-01T18:15:42;5.50;52.00
43999;DHT22;51319;52.162;5.302;2023-03-01T18:18:10;5.50;52.20